Aérodrome :
LOGIN :

S'inscrire | Disclaimer

   EN    FR    IT 

 










Légende :    VFR   VFR Marginal   IFR   IFR Intensif   IFR Très Intensif
Visi : 
Plafond : 
>= 8 km
>= 3000ft
5 à 8 km
1000 à 3000 ft
1500m à 5 km
500 à 1000 ft
800 à 1500m
200 à 500 ft
< 800m
< 200 ft
Symboles :   Orages  Brouillard  Fortes neiges  Fortes précipitations  Vent > 20 kt
SIGMETs :   Divers  Orages  Givrage  Turbulence  Onde Orograph.  Cendres Volcan.







- Altitude de l'aérodrome : 46 ft
- Code IATA : SNN


EINN - Shannon

DERNIER METAR :
  • 241030Z 28011KT 9999 FEW014 BKN018 15/12 Q1020 NOSIG

METARs EXPIRÉS :
  • 241000Z 31009KT 9999 FEW010 BKN019 15/11 Q1020 NOSIG
  • 240930Z 31006KT 9999 FEW008 SCT014 BKN019 14/12 Q1020 NOSIG
  • 240900Z 31008KT 9999 FEW007 BKN012 BKN016 14/12 Q1020 BECMG BKN020
  • 240830Z 31009KT 9000 -DZ FEW007 BKN011 OVC028 13/12 Q1020 BECMG BKN020
  • 240800Z 31010KT 9999 -RA FEW004 BKN012 OVC028 13/12 Q1020 BECMG BKN020

TAF TAF EINN
Valide du 24 à 06h jusqu'au 25 à 06h UTC


240500Z 2406/2506 26007KT 9999 FEW004 BKN010
TEMPO 2406/2408 4000 -RADZ BR BKN007
PROB40
TEMPO 2406/2407 BKN004
BECMG 2407/2409 29010KT
BECMG 2408/2410 BKN020
BECMG 2421/2424 VRB03KT
BECMG 2500/2503 BKN010
TEMPO 2502/2506 4000 -DZ BR BKN005
Pas de NOTAMs connus pour ce terrain.



MET'MAP, la Météo Aéronautique d'un coup d'oeil ! - Copyright ORBIFLY Décembre 2007 - Disclaimer

ORBIFLY MET'MAP TEAM :

Programmation & Développement : Alexandra Zaïnal
Conception & Développement : Baudouin d'Aumeries
Co-Programmation & Développement : Marc-Olivier Méhu
Soutien technique & logistique : Manuel Goepfert

Contact : metmap@orbifly.com




SOURCES & CREDITS :

   NOAA